sensor_id;sensor_type;location;lat;lon;timestamp;P1;durP1;ratioP1;P2;durP2;ratioP2
38972;SDS011;25333;50.762;4.470;2024-03-25T00:00:32;8.32;;;5.60;;
38972;SDS011;25333;50.762;4.470;2024-03-25T00:02:59;8.20;;;5.10;;
38972;SDS011;25333;50.762;4.470;2024-03-25T00:05:25;9.88;;;5.10;;
38972;SDS011;25333;50.762;4.470;2024-03-25T00:07:51;8.82;;;5.43;;
38972;SDS011;25333;50.762;4.470;2024-03-25T00:10:17;11.15;;;6.07;;
38972;SDS011;25333;50.762;4.470;2024-03-25T00:12:45;7.70;;;5.45;;
38972;SDS011;25333;50.762;4.470;2024-03-25T00:15:12;8.40;;;5.80;;
38972;SDS011;25333;50.762;4.470;2024-03-25T00:17:38;7.10;;;5.72;;
38972;SDS011;25333;50.762;4.470;2024-03-25T00:20:04;8.52;;;5.47;;
38972;SDS011;25333;50.762;4.470;2024-03-25T00:22:31;6.55;;;5.38;;
38972;SDS011;25333;50.762;4.470;2024-03-25T00:24:56;7.93;;;4.97;;
38972;SDS011;25333;50.762;4.470;2024-03-25T00:27:22;9.97;;;4.90;;
38972;SDS011;25333;50.762;4.470;2024-03-25T00:29:48;7.83;;;5.50;;
38972;SDS011;25333;50.762;4.470;2024-03-25T00:32:13;6.78;;;3.97;;
38972;SDS011;25333;50.762;4.470;2024-03-25T00:34:40;7.33;;;5.20;;
38972;SDS011;25333;50.762;4.470;2024-03-25T00:37:05;7.33;;;5.17;;
38972;SDS011;25333;50.762;4.470;2024-03-25T00:39:31;8.23;;;5.28;;
38972;SDS011;25333;50.762;4.470;2024-03-25T00:41:57;9.52;;;5.97;;
38972;SDS011;25333;50.762;4.470;2024-03-25T00:44:23;8.20;;;5.93;;
38972;SDS011;25333;50.762;4.470;2024-03-25T00:46:49;7.87;;;5.43;;
38972;SDS011;25333;50.762;4.470;2024-03-25T00:49:16;8.80;;;5.63;;
38972;SDS011;25333;50.762;4.470;2024-03-25T00:51:42;7.97;;;6.00;;
38972;SDS011;25333;50.762;4.470;2024-03-25T00:54:07;8.52;;;4.90;;
38972;SDS011;25333;50.762;4.470;2024-03-25T00:56:33;8.60;;;5.18;;
38972;SDS011;25333;50.762;4.470;2024-03-25T00:58:59;9.70;;;5.28;;
38972;SDS011;25333;50.762;4.470;2024-03-25T01:01:30;7.97;;;5.25;;
38972;SDS011;25333;50.762;4.470;2024-03-25T01:04:01;7.45;;;5.32;;
38972;SDS011;25333;50.762;4.470;2024-03-25T01:06:27;9.52;;;5.72;;
38972;SDS011;25333;50.762;4.470;2024-03-25T01:08:52;9.85;;;5.75;;
38972;SDS011;25333;50.762;4.470;2024-03-25T01:11:18;7.47;;;4.65;;
38972;SDS011;25333;50.762;4.470;2024-03-25T01:13:44;6.32;;;5.10;;
38972;SDS011;25333;50.762;4.470;2024-03-25T01:16:09;9.20;;;5.17;;
38972;SDS011;25333;50.762;4.470;2024-03-25T01:18:36;6.50;;;4.43;;
38972;SDS011;25333;50.762;4.470;2024-03-25T01:21:01;7.35;;;5.18;;
38972;SDS011;25333;50.762;4.470;2024-03-25T01:23:27;7.93;;;4.80;;
38972;SDS011;25333;50.762;4.470;2024-03-25T01:25:53;9.05;;;5.20;;
38972;SDS011;25333;50.762;4.470;2024-03-25T01:28:19;7.03;;;5.30;;
38972;SDS011;25333;50.762;4.470;2024-03-25T01:30:45;6.70;;;5.15;;
38972;SDS011;25333;50.762;4.470;2024-03-25T01:33:11;9.03;;;5.10;;
38972;SDS011;25333;50.762;4.470;2024-03-25T01:35:36;9.30;;;5.43;;
38972;SDS011;25333;50.762;4.470;2024-03-25T01:38:02;7.22;;;4.80;;
38972;SDS011;25333;50.762;4.470;2024-03-25T01:40:28;6.57;;;4.77;;
38972;SDS011;25333;50.762;4.470;2024-03-25T01:42:55;10.03;;;5.07;;
38972;SDS011;25333;50.762;4.470;2024-03-25T01:45:25;6.18;;;4.45;;
38972;SDS011;25333;50.762;4.470;2024-03-25T01:47:57;7.18;;;3.60;;
38972;SDS011;25333;50.762;4.470;2024-03-25T01:50:26;6.95;;;5.18;;
38972;SDS011;25333;50.762;4.470;2024-03-25T01:52:52;6.78;;;5.15;;
38972;SDS011;25333;50.762;4.470;2024-03-25T01:55:20;7.00;;;5.10;;
38972;SDS011;25333;50.762;4.470;2024-03-25T01:57:49;6.68;;;4.40;;
38972;SDS011;25333;50.762;4.470;2024-03-25T02:00:16;6.60;;;4.95;;
38972;SDS011;25333;50.762;4.470;2024-03-25T02:02:43;6.88;;;4.60;;
38972;SDS011;25333;50.762;4.470;2024-03-25T02:05:15;5.90;;;4.35;;
38972;SDS011;25333;50.762;4.470;2024-03-25T02:07:41;5.35;;;4.10;;
38972;SDS011;25333;50.762;4.470;2024-03-25T02:10:08;9.82;;;4.60;;
38972;SDS011;25333;50.762;4.470;2024-03-25T02:12:43;6.70;;;4.20;;
38972;SDS011;25333;50.762;4.470;2024-03-25T02:15:11;7.00;;;3.55;;
38972;SDS011;25333;50.762;4.470;2024-03-25T02:17:41;6.65;;;4.07;;
38972;SDS011;25333;50.762;4.470;2024-03-25T02:20:07;6.90;;;4.07;;
38972;SDS011;25333;50.762;4.470;2024-03-25T02:22:33;6.80;;;4.07;;
38972;SDS011;25333;50.762;4.470;2024-03-25T02:25:01;6.15;;;3.78;;
38972;SDS011;25333;50.762;4.470;2024-03-25T02:27:33;5.55;;;4.05;;
38972;SDS011;25333;50.762;4.470;2024-03-25T02:30:06;4.80;;;3.20;;
38972;SDS011;25333;50.762;4.470;2024-03-25T02:32:33;5.30;;;3.85;;
38972;SDS011;25333;50.762;4.470;2024-03-25T02:34:59;6.82;;;4.70;;
38972;SDS011;25333;50.762;4.470;2024-03-25T02:37:28;5.63;;;3.60;;
38972;SDS011;25333;50.762;4.470;2024-03-25T02:39:55;9.03;;;4.63;;
38972;SDS011;25333;50.762;4.470;2024-03-25T02:42:24;5.90;;;4.30;;
38972;SDS011;25333;50.762;4.470;2024-03-25T02:44:54;5.55;;;3.60;;
38972;SDS011;25333;50.762;4.470;2024-03-25T02:47:21;7.70;;;4.18;;
38972;SDS011;25333;50.762;4.470;2024-03-25T02:49:47;6.60;;;4.10;;
38972;SDS011;25333;50.762;4.470;2024-03-25T02:52:13;5.90;;;3.60;;
38972;SDS011;25333;50.762;4.470;2024-03-25T02:54:39;6.33;;;3.77;;
38972;SDS011;25333;50.762;4.470;2024-03-25T02:57:04;7.13;;;3.57;;
38972;SDS011;25333;50.762;4.470;2024-03-25T02:59:30;6.60;;;3.92;;
38972;SDS011;25333;50.762;4.470;2024-03-25T03:01:56;4.90;;;3.55;;
38972;SDS011;25333;50.762;4.470;2024-03-25T03:04:21;5.88;;;3.63;;
38972;SDS011;25333;50.762;4.470;2024-03-25T03:06:47;6.10;;;3.90;;
38972;SDS011;25333;50.762;4.470;2024-03-25T03:09:13;7.40;;;4.13;;
38972;SDS011;25333;50.762;4.470;2024-03-25T03:11:39;6.23;;;3.33;;
38972;SDS011;25333;50.762;4.470;2024-03-25T03:14:04;5.13;;;3.90;;
38972;SDS011;25333;50.762;4.470;2024-03-25T03:16:31;6.80;;;4.10;;
38972;SDS011;25333;50.762;4.470;2024-03-25T03:18:56;6.43;;;3.90;;
38972;SDS011;25333;50.762;4.470;2024-03-25T03:21:22;6.10;;;3.90;;
38972;SDS011;25333;50.762;4.470;2024-03-25T03:23:48;6.10;;;3.40;;
38972;SDS011;25333;50.762;4.470;2024-03-25T03:26:13;5.20;;;3.42;;
38972;SDS011;25333;50.762;4.470;2024-03-25T03:28:39;6.50;;;3.93;;
38972;SDS011;25333;50.762;4.470;2024-03-25T03:31:05;6.15;;;3.85;;
38972;SDS011;25333;50.762;4.470;2024-03-25T03:33:31;6.80;;;3.50;;
38972;SDS011;25333;50.762;4.470;2024-03-25T03:35:57;7.03;;;3.78;;
38972;SDS011;25333;50.762;4.470;2024-03-25T03:38:23;9.93;;;4.32;;
38972;SDS011;25333;50.762;4.470;2024-03-25T03:40:56;5.40;;;3.83;;
38972;SDS011;25333;50.762;4.470;2024-03-25T03:43:25;6.83;;;3.60;;
38972;SDS011;25333;50.762;4.470;2024-03-25T03:45:51;7.00;;;4.53;;
38972;SDS011;25333;50.762;4.470;2024-03-25T03:48:16;6.97;;;3.78;;
38972;SDS011;25333;50.762;4.470;2024-03-25T03:50:42;7.60;;;4.00;;
38972;SDS011;25333;50.762;4.470;2024-03-25T03:53:08;8.27;;;4.57;;
38972;SDS011;25333;50.762;4.470;2024-03-25T03:55:34;5.33;;;3.43;;
38972;SDS011;25333;50.762;4.470;2024-03-25T03:58:00;7.80;;;4.47;;
38972;SDS011;25333;50.762;4.470;2024-03-25T04:00:26;6.93;;;3.78;;
38972;SDS011;25333;50.762;4.470;2024-03-25T04:02:52;6.60;;;4.47;;
38972;SDS011;25333;50.762;4.470;2024-03-25T04:05:18;6.10;;;4.30;;
38972;SDS011;25333;50.762;4.470;2024-03-25T04:07:44;7.88;;;4.20;;
38972;SDS011;25333;50.762;4.470;2024-03-25T04:10:10;6.00;;;3.35;;
38972;SDS011;25333;50.762;4.470;2024-03-25T04:12:35;6.80;;;3.83;;
38972;SDS011;25333;50.762;4.470;2024-03-25T04:15:04;9.27;;;4.65;;
38972;SDS011;25333;50.762;4.470;2024-03-25T04:17:30;8.82;;;4.55;;
38972;SDS011;25333;50.762;4.470;2024-03-25T04:19:58;8.70;;;4.88;;
38972;SDS011;25333;50.762;4.470;2024-03-25T04:22:25;11.32;;;5.13;;
38972;SDS011;25333;50.762;4.470;2024-03-25T04:24:51;9.00;;;5.30;;
38972;SDS011;25333;50.762;4.470;2024-03-25T04:27:17;8.95;;;5.70;;
38972;SDS011;25333;50.762;4.470;2024-03-25T04:29:45;10.00;;;5.75;;
38972;SDS011;25333;50.762;4.470;2024-03-25T04:32:11;10.48;;;5.18;;
38972;SDS011;25333;50.762;4.470;2024-03-25T04:34:37;8.50;;;5.05;;
38972;SDS011;25333;50.762;4.470;2024-03-25T04:37:03;10.90;;;5.63;;
38972;SDS011;25333;50.762;4.470;2024-03-25T04:39:29;11.07;;;5.43;;
38972;SDS011;25333;50.762;4.470;2024-03-25T04:41:55;6.75;;;4.45;;
38972;SDS011;25333;50.762;4.470;2024-03-25T04:44:21;7.07;;;4.57;;
38972;SDS011;25333;50.762;4.470;2024-03-25T04:46:47;8.82;;;5.13;;
38972;SDS011;25333;50.762;4.470;2024-03-25T04:49:13;7.15;;;4.20;;
38972;SDS011;25333;50.762;4.470;2024-03-25T04:51:38;6.80;;;4.18;;
38972;SDS011;25333;50.762;4.470;2024-03-25T04:54:04;8.65;;;4.57;;
38972;SDS011;25333;50.762;4.470;2024-03-25T04:56:30;6.78;;;4.60;;
38972;SDS011;25333;50.762;4.470;2024-03-25T04:58:56;7.35;;;4.65;;
38972;SDS011;25333;50.762;4.470;2024-03-25T05:01:26;8.57;;;4.47;;
38972;SDS011;25333;50.762;4.470;2024-03-25T05:03:52;7.50;;;4.53;;
38972;SDS011;25333;50.762;4.470;2024-03-25T05:06:18;7.47;;;4.07;;
38972;SDS011;25333;50.762;4.470;2024-03-25T05:08:43;9.90;;;5.53;;
38972;SDS011;25333;50.762;4.470;2024-03-25T05:11:09;7.93;;;4.15;;
38972;SDS011;25333;50.762;4.470;2024-03-25T05:13:35;9.50;;;5.53;;
38972;SDS011;25333;50.762;4.470;2024-03-25T05:16:01;7.55;;;3.83;;
38972;SDS011;25333;50.762;4.470;2024-03-25T05:18:26;8.40;;;4.28;;
38972;SDS011;25333;50.762;4.470;2024-03-25T05:20:52;8.57;;;4.57;;
38972;SDS011;25333;50.762;4.470;2024-03-25T05:23:18;6.63;;;4.10;;
38972;SDS011;25333;50.762;4.470;2024-03-25T05:25:46;8.68;;;5.10;;
38972;SDS011;25333;50.762;4.470;2024-03-25T05:28:11;8.38;;;4.70;;
38972;SDS011;25333;50.762;4.470;2024-03-25T05:30:38;7.88;;;4.60;;
38972;SDS011;25333;50.762;4.470;2024-03-25T05:33:04;10.43;;;5.85;;
38972;SDS011;25333;50.762;4.470;2024-03-25T05:35:29;8.25;;;5.18;;
38972;SDS011;25333;50.762;4.470;2024-03-25T05:37:58;11.20;;;5.47;;
38972;SDS011;25333;50.762;4.470;2024-03-25T05:40:23;7.75;;;4.50;;
38972;SDS011;25333;50.762;4.470;2024-03-25T05:42:49;10.30;;;4.18;;
38972;SDS011;25333;50.762;4.470;2024-03-25T05:45:15;8.75;;;3.80;;
38972;SDS011;25333;50.762;4.470;2024-03-25T05:47:40;6.87;;;4.63;;
38972;SDS011;25333;50.762;4.470;2024-03-25T05:50:06;8.13;;;4.30;;
38972;SDS011;25333;50.762;4.470;2024-03-25T05:52:33;5.65;;;4.13;;
38972;SDS011;25333;50.762;4.470;2024-03-25T05:54:58;7.15;;;3.88;;
38972;SDS011;25333;50.762;4.470;2024-03-25T05:57:24;7.15;;;4.50;;
38972;SDS011;25333;50.762;4.470;2024-03-25T05:59:50;5.47;;;3.93;;
38972;SDS011;25333;50.762;4.470;2024-03-25T06:02:16;6.70;;;4.10;;
38972;SDS011;25333;50.762;4.470;2024-03-25T06:04:42;6.38;;;4.43;;
38972;SDS011;25333;50.762;4.470;2024-03-25T06:07:08;6.55;;;4.22;;
38972;SDS011;25333;50.762;4.470;2024-03-25T06:09:33;5.23;;;3.60;;
38972;SDS011;25333;50.762;4.470;2024-03-25T06:11:59;8.20;;;4.30;;
38972;SDS011;25333;50.762;4.470;2024-03-25T06:14:24;7.05;;;3.38;;
38972;SDS011;25333;50.762;4.470;2024-03-25T06:16:50;7.00;;;3.90;;
38972;SDS011;25333;50.762;4.470;2024-03-25T06:19:16;6.70;;;4.50;;
38972;SDS011;25333;50.762;4.470;2024-03-25T06:21:41;6.50;;;3.97;;
38972;SDS011;25333;50.762;4.470;2024-03-25T06:24:07;10.60;;;5.20;;
38972;SDS011;25333;50.762;4.470;2024-03-25T06:26:33;11.60;;;4.78;;
38972;SDS011;25333;50.762;4.470;2024-03-25T06:28:59;6.40;;;3.83;;
38972;SDS011;25333;50.762;4.470;2024-03-25T06:31:25;4.82;;;3.80;;
38972;SDS011;25333;50.762;4.470;2024-03-25T06:34:09;6.50;;;3.83;;
38972;SDS011;25333;50.762;4.470;2024-03-25T06:36:46;6.38;;;4.55;;
38972;SDS011;25333;50.762;4.470;2024-03-25T06:39:13;5.35;;;3.80;;
38972;SDS011;25333;50.762;4.470;2024-03-25T06:41:39;7.13;;;4.10;;
38972;SDS011;25333;50.762;4.470;2024-03-25T06:44:05;12.48;;;4.72;;
38972;SDS011;25333;50.762;4.470;2024-03-25T06:46:31;9.17;;;5.07;;
38972;SDS011;25333;50.762;4.470;2024-03-25T06:48:57;7.40;;;4.13;;
38972;SDS011;25333;50.762;4.470;2024-03-25T06:51:22;8.23;;;4.90;;
38972;SDS011;25333;50.762;4.470;2024-03-25T06:53:48;6.93;;;4.53;;
38972;SDS011;25333;50.762;4.470;2024-03-25T06:56:14;7.95;;;5.63;;
38972;SDS011;25333;50.762;4.470;2024-03-25T06:58:40;9.95;;;6.03;;
38972;SDS011;25333;50.762;4.470;2024-03-25T07:01:07;8.17;;;5.70;;
38972;SDS011;25333;50.762;4.470;2024-03-25T07:03:34;10.90;;;7.20;;
38972;SDS011;25333;50.762;4.470;2024-03-25T07:06:01;14.52;;;8.55;;
38972;SDS011;25333;50.762;4.470;2024-03-25T07:08:27;13.05;;;7.78;;
38972;SDS011;25333;50.762;4.470;2024-03-25T07:10:53;12.82;;;8.23;;
38972;SDS011;25333;50.762;4.470;2024-03-25T07:13:19;17.00;;;9.73;;
38972;SDS011;25333;50.762;4.470;2024-03-25T07:15:45;18.20;;;10.15;;
38972;SDS011;25333;50.762;4.470;2024-03-25T07:18:11;16.50;;;9.05;;
38972;SDS011;25333;50.762;4.470;2024-03-25T07:20:41;14.10;;;8.05;;
38972;SDS011;25333;50.762;4.470;2024-03-25T07:23:08;20.73;;;11.18;;
38972;SDS011;25333;50.762;4.470;2024-03-25T07:25:34;17.17;;;9.82;;
38972;SDS011;25333;50.762;4.470;2024-03-25T07:28:00;19.60;;;10.98;;
38972;SDS011;25333;50.762;4.470;2024-03-25T07:30:25;17.92;;;10.10;;
38972;SDS011;25333;50.762;4.470;2024-03-25T07:32:57;13.60;;;9.45;;
38972;SDS011;25333;50.762;4.470;2024-03-25T07:35:23;17.83;;;10.70;;
38972;SDS011;25333;50.762;4.470;2024-03-25T07:37:50;18.08;;;9.48;;
38972;SDS011;25333;50.762;4.470;2024-03-25T07:40:16;18.30;;;9.75;;
38972;SDS011;25333;50.762;4.470;2024-03-25T07:42:48;13.82;;;7.95;;
38972;SDS011;25333;50.762;4.470;2024-03-25T07:45:14;16.47;;;9.07;;
38972;SDS011;25333;50.762;4.470;2024-03-25T07:47:40;16.03;;;7.53;;
38972;SDS011;25333;50.762;4.470;2024-03-25T07:50:06;12.83;;;7.37;;
38972;SDS011;25333;50.762;4.470;2024-03-25T07:52:33;15.80;;;9.35;;
38972;SDS011;25333;50.762;4.470;2024-03-25T07:55:01;18.73;;;10.10;;
38972;SDS011;25333;50.762;4.470;2024-03-25T07:57:27;22.00;;;9.50;;
38972;SDS011;25333;50.762;4.470;2024-03-25T07:59:53;21.45;;;10.85;;
38972;SDS011;25333;50.762;4.470;2024-03-25T08:02:19;19.45;;;9.48;;
38972;SDS011;25333;50.762;4.470;2024-03-25T08:04:44;16.30;;;10.00;;
38972;SDS011;25333;50.762;4.470;2024-03-25T08:07:10;16.70;;;9.67;;
38972;SDS011;25333;50.762;4.470;2024-03-25T08:09:36;13.82;;;6.97;;
38972;SDS011;25333;50.762;4.470;2024-03-25T08:12:01;15.52;;;8.07;;
38972;SDS011;25333;50.762;4.470;2024-03-25T08:14:27;13.87;;;7.40;;
38972;SDS011;25333;50.762;4.470;2024-03-25T08:16:53;13.88;;;7.32;;
38972;SDS011;25333;50.762;4.470;2024-03-25T08:19:19;13.32;;;6.88;;
38972;SDS011;25333;50.762;4.470;2024-03-25T08:21:45;15.52;;;6.85;;
38972;SDS011;25333;50.762;4.470;2024-03-25T08:24:10;12.87;;;6.50;;
38972;SDS011;25333;50.762;4.470;2024-03-25T08:26:36;9.95;;;6.30;;
38972;SDS011;25333;50.762;4.470;2024-03-25T08:29:01;18.37;;;6.80;;
38972;SDS011;25333;50.762;4.470;2024-03-25T08:31:29;13.33;;;6.03;;
38972;SDS011;25333;50.762;4.470;2024-03-25T08:33:54;13.75;;;6.70;;
38972;SDS011;25333;50.762;4.470;2024-03-25T08:36:20;10.25;;;6.60;;
38972;SDS011;25333;50.762;4.470;2024-03-25T08:38:46;13.65;;;6.22;;
38972;SDS011;25333;50.762;4.470;2024-03-25T08:41:12;12.35;;;6.18;;
38972;SDS011;25333;50.762;4.470;2024-03-25T08:43:38;12.87;;;6.90;;
38972;SDS011;25333;50.762;4.470;2024-03-25T08:46:03;15.95;;;8.18;;
38972;SDS011;25333;50.762;4.470;2024-03-25T08:48:29;10.77;;;6.93;;
38972;SDS011;25333;50.762;4.470;2024-03-25T08:50:55;12.70;;;6.73;;
38972;SDS011;25333;50.762;4.470;2024-03-25T08:53:21;13.52;;;6.65;;
38972;SDS011;25333;50.762;4.470;2024-03-25T08:55:46;14.67;;;6.30;;
38972;SDS011;25333;50.762;4.470;2024-03-25T08:58:13;12.57;;;6.07;;
38972;SDS011;25333;50.762;4.470;2024-03-25T09:00:39;17.50;;;7.18;;
38972;SDS011;25333;50.762;4.470;2024-03-25T09:03:05;10.57;;;6.43;;
38972;SDS011;25333;50.762;4.470;2024-03-25T09:05:31;11.65;;;6.32;;
38972;SDS011;25333;50.762;4.470;2024-03-25T09:07:56;10.17;;;5.50;;
38972;SDS011;25333;50.762;4.470;2024-03-25T09:10:23;11.85;;;5.82;;
38972;SDS011;25333;50.762;4.470;2024-03-25T09:13:08;12.93;;;5.95;;
38972;SDS011;25333;50.762;4.470;2024-03-25T09:15:34;9.77;;;5.20;;
38972;SDS011;25333;50.762;4.470;2024-03-25T09:18:00;12.45;;;6.57;;
38972;SDS011;25333;50.762;4.470;2024-03-25T09:20:25;11.20;;;5.97;;
38972;SDS011;25333;50.762;4.470;2024-03-25T09:22:51;11.20;;;6.35;;
38972;SDS011;25333;50.762;4.470;2024-03-25T09:25:17;10.20;;;5.10;;
38972;SDS011;25333;50.762;4.470;2024-03-25T09:27:47;9.88;;;5.60;;
38972;SDS011;25333;50.762;4.470;2024-03-25T09:30:14;10.73;;;5.30;;
38972;SDS011;25333;50.762;4.470;2024-03-25T09:32:40;10.65;;;3.90;;
38972;SDS011;25333;50.762;4.470;2024-03-25T09:35:07;10.32;;;4.15;;
38972;SDS011;25333;50.762;4.470;2024-03-25T09:37:33;7.67;;;4.17;;
38972;SDS011;25333;50.762;4.470;2024-03-25T09:39:59;7.43;;;3.88;;
38972;SDS011;25333;50.762;4.470;2024-03-25T09:42:29;7.43;;;3.87;;
38972;SDS011;25333;50.762;4.470;2024-03-25T09:45:01;7.50;;;4.03;;
38972;SDS011;25333;50.762;4.470;2024-03-25T09:47:28;9.25;;;4.80;;
38972;SDS011;25333;50.762;4.470;2024-03-25T09:49:54;10.25;;;4.32;;
38972;SDS011;25333;50.762;4.470;2024-03-25T09:52:20;8.52;;;3.63;;
38972;SDS011;25333;50.762;4.470;2024-03-25T09:54:46;9.55;;;4.25;;
38972;SDS011;25333;50.762;4.470;2024-03-25T09:57:11;8.97;;;3.80;;
38972;SDS011;25333;50.762;4.470;2024-03-25T09:59:38;7.90;;;3.63;;
38972;SDS011;25333;50.762;4.470;2024-03-25T10:02:04;8.77;;;3.75;;
38972;SDS011;25333;50.762;4.470;2024-03-25T10:04:31;6.20;;;3.45;;
38972;SDS011;25333;50.762;4.470;2024-03-25T10:06:58;9.43;;;4.30;;
38972;SDS011;25333;50.762;4.470;2024-03-25T10:09:23;5.33;;;3.20;;
38972;SDS011;25333;50.762;4.470;2024-03-25T10:11:50;6.20;;;2.72;;
38972;SDS011;25333;50.762;4.470;2024-03-25T10:14:16;7.13;;;3.05;;
38972;SDS011;25333;50.762;4.470;2024-03-25T10:16:43;5.73;;;3.07;;
38972;SDS011;25333;50.762;4.470;2024-03-25T10:19:09;7.45;;;3.47;;
38972;SDS011;25333;50.762;4.470;2024-03-25T10:21:35;5.57;;;2.90;;
38972;SDS011;25333;50.762;4.470;2024-03-25T10:24:01;8.27;;;2.80;;
38972;SDS011;25333;50.762;4.470;2024-03-25T10:26:30;6.57;;;2.33;;
38972;SDS011;25333;50.762;4.470;2024-03-25T10:29:04;6.68;;;2.80;;
38972;SDS011;25333;50.762;4.470;2024-03-25T10:31:31;6.03;;;2.78;;
38972;SDS011;25333;50.762;4.470;2024-03-25T10:33:58;7.03;;;2.72;;
38972;SDS011;25333;50.762;4.470;2024-03-25T10:36:24;4.93;;;2.33;;
38972;SDS011;25333;50.762;4.470;2024-03-25T10:38:54;6.93;;;2.70;;
38972;SDS011;25333;50.762;4.470;2024-03-25T10:41:21;5.90;;;2.50;;
38972;SDS011;25333;50.762;4.470;2024-03-25T10:43:50;7.13;;;2.50;;
38972;SDS011;25333;50.762;4.470;2024-03-25T10:46:19;6.68;;;2.55;;
38972;SDS011;25333;50.762;4.470;2024-03-25T10:51:27;7.63;;;1.80;;
38972;SDS011;25333;50.762;4.470;2024-03-25T10:53:55;6.28;;;2.42;;
38972;SDS011;25333;50.762;4.470;2024-03-25T10:56:23;6.25;;;2.10;;
38972;SDS011;25333;50.762;4.470;2024-03-25T10:58:49;5.70;;;1.48;;
38972;SDS011;25333;50.762;4.470;2024-03-25T11:01:18;5.63;;;2.10;;
38972;SDS011;25333;50.762;4.470;2024-03-25T11:03:45;4.85;;;1.90;;
38972;SDS011;25333;50.762;4.470;2024-03-25T11:06:13;5.00;;;1.80;;
38972;SDS011;25333;50.762;4.470;2024-03-25T11:08:39;4.65;;;1.45;;
38972;SDS011;25333;50.762;4.470;2024-03-25T11:11:06;4.80;;;1.55;;
38972;SDS011;25333;50.762;4.470;2024-03-25T11:13:32;7.55;;;2.20;;
38972;SDS011;25333;50.762;4.470;2024-03-25T11:15:59;7.95;;;2.42;;
38972;SDS011;25333;50.762;4.470;2024-03-25T11:18:26;8.07;;;1.83;;
38972;SDS011;25333;50.762;4.470;2024-03-25T11:23:36;6.72;;;2.38;;
38972;SDS011;25333;50.762;4.470;2024-03-25T11:26:21;3.35;;;1.45;;
38972;SDS011;25333;50.762;4.470;2024-03-25T11:28:49;3.90;;;1.90;;
38972;SDS011;25333;50.762;4.470;2024-03-25T11:31:15;3.42;;;1.13;;
38972;SDS011;25333;50.762;4.470;2024-03-25T11:33:41;3.40;;;1.40;;
38972;SDS011;25333;50.762;4.470;2024-03-25T11:36:07;3.78;;;1.77;;
38972;SDS011;25333;50.762;4.470;2024-03-25T11:38:34;3.60;;;1.33;;
38972;SDS011;25333;50.762;4.470;2024-03-25T11:41:00;3.13;;;1.53;;
38972;SDS011;25333;50.762;4.470;2024-03-25T11:43:26;3.38;;;1.08;;
38972;SDS011;25333;50.762;4.470;2024-03-25T11:45:52;4.32;;;1.20;;
38972;SDS011;25333;50.762;4.470;2024-03-25T11:48:19;4.40;;;1.13;;
38972;SDS011;25333;50.762;4.470;2024-03-25T11:50:45;2.63;;;1.10;;
38972;SDS011;25333;50.762;4.470;2024-03-25T11:53:12;2.40;;;0.52;;
38972;SDS011;25333;50.762;4.470;2024-03-25T11:55:39;3.05;;;0.50;;
38972;SDS011;25333;50.762;4.470;2024-03-25T11:58:06;3.70;;;1.17;;
38972;SDS011;25333;50.762;4.470;2024-03-25T12:00:32;3.28;;;1.17;;
38972;SDS011;25333;50.762;4.470;2024-03-25T12:02:58;2.93;;;1.40;;
38972;SDS011;25333;50.762;4.470;2024-03-25T12:05:25;2.33;;;1.20;;
38972;SDS011;25333;50.762;4.470;2024-03-25T12:07:50;5.30;;;1.30;;
38972;SDS011;25333;50.762;4.470;2024-03-25T12:10:16;3.03;;;0.87;;
38972;SDS011;25333;50.762;4.470;2024-03-25T12:13:01;2.90;;;0.95;;
38972;SDS011;25333;50.762;4.470;2024-03-25T12:15:27;4.18;;;1.08;;
38972;SDS011;25333;50.762;4.470;2024-03-25T12:17:52;2.38;;;0.90;;
38972;SDS011;25333;50.762;4.470;2024-03-25T12:20:19;2.88;;;1.20;;
38972;SDS011;25333;50.762;4.470;2024-03-25T12:22:45;3.63;;;0.80;;
38972;SDS011;25333;50.762;4.470;2024-03-25T12:25:11;2.00;;;0.70;;
38972;SDS011;25333;50.762;4.470;2024-03-25T12:27:37;1.60;;;0.50;;
38972;SDS011;25333;50.762;4.470;2024-03-25T12:30:07;3.10;;;1.10;;
38972;SDS011;25333;50.762;4.470;2024-03-25T12:32:43;2.58;;;0.70;;
38972;SDS011;25333;50.762;4.470;2024-03-25T12:35:12;1.75;;;0.40;;
38972;SDS011;25333;50.762;4.470;2024-03-25T12:37:41;1.05;;;0.45;;
38972;SDS011;25333;50.762;4.470;2024-03-25T12:40:09;1.88;;;0.50;;
38972;SDS011;25333;50.762;4.470;2024-03-25T12:42:36;2.50;;;0.60;;
38972;SDS011;25333;50.762;4.470;2024-03-25T12:45:02;3.25;;;0.50;;
38972;SDS011;25333;50.762;4.470;2024-03-25T12:47:29;1.45;;;0.63;;
38972;SDS011;25333;50.762;4.470;2024-03-25T12:49:55;2.27;;;0.53;;
38972;SDS011;25333;50.762;4.470;2024-03-25T12:52:21;1.48;;;0.43;;
38972;SDS011;25333;50.762;4.470;2024-03-25T12:54:46;1.97;;;0.50;;
38972;SDS011;25333;50.762;4.470;2024-03-25T12:57:12;1.00;;;0.40;;
38972;SDS011;25333;50.762;4.470;2024-03-25T12:59:38;2.23;;;0.50;;
38972;SDS011;25333;50.762;4.470;2024-03-25T13:02:04;1.50;;;0.55;;
38972;SDS011;25333;50.762;4.470;2024-03-25T13:04:30;3.47;;;0.90;;
38972;SDS011;25333;50.762;4.470;2024-03-25T13:06:55;4.30;;;0.40;;
38972;SDS011;25333;50.762;4.470;2024-03-25T13:09:21;2.30;;;0.50;;
38972;SDS011;25333;50.762;4.470;2024-03-25T13:11:46;3.33;;;0.70;;
38972;SDS011;25333;50.762;4.470;2024-03-25T13:14:12;3.08;;;0.70;;
38972;SDS011;25333;50.762;4.470;2024-03-25T13:16:39;1.88;;;0.60;;
38972;SDS011;25333;50.762;4.470;2024-03-25T13:19:05;2.25;;;0.47;;
38972;SDS011;25333;50.762;4.470;2024-03-25T13:21:31;2.40;;;0.90;;
38972;SDS011;25333;50.762;4.470;2024-03-25T13:23:57;4.60;;;1.50;;
38972;SDS011;25333;50.762;4.470;2024-03-25T13:26:23;1.87;;;0.37;;
38972;SDS011;25333;50.762;4.470;2024-03-25T13:28:49;3.38;;;0.75;;
38972;SDS011;25333;50.762;4.470;2024-03-25T13:31:14;1.60;;;0.60;;
38972;SDS011;25333;50.762;4.470;2024-03-25T13:33:41;1.38;;;0.57;;
38972;SDS011;25333;50.762;4.470;2024-03-25T13:36:07;4.00;;;0.98;;
38972;SDS011;25333;50.762;4.470;2024-03-25T13:38:33;1.50;;;0.60;;
38972;SDS011;25333;50.762;4.470;2024-03-25T13:41:02;2.30;;;0.65;;
38972;SDS011;25333;50.762;4.470;2024-03-25T13:43:28;1.00;;;0.37;;
38972;SDS011;25333;50.762;4.470;2024-03-25T13:45:54;2.60;;;0.57;;
38972;SDS011;25333;50.762;4.470;2024-03-25T13:48:20;3.00;;;0.68;;
38972;SDS011;25333;50.762;4.470;2024-03-25T13:50:45;2.20;;;0.75;;
38972;SDS011;25333;50.762;4.470;2024-03-25T13:53:11;2.80;;;0.68;;
38972;SDS011;25333;50.762;4.470;2024-03-25T13:55:37;2.10;;;0.67;;
38972;SDS011;25333;50.762;4.470;2024-03-25T13:58:03;1.67;;;0.70;;
38972;SDS011;25333;50.762;4.470;2024-03-25T14:00:30;2.42;;;1.00;;
38972;SDS011;25333;50.762;4.470;2024-03-25T14:02:56;1.40;;;0.47;;
38972;SDS011;25333;50.762;4.470;2024-03-25T14:05:22;2.25;;;0.60;;
38972;SDS011;25333;50.762;4.470;2024-03-25T14:07:48;2.90;;;0.70;;
38972;SDS011;25333;50.762;4.470;2024-03-25T14:10:14;2.08;;;0.50;;
38972;SDS011;25333;50.762;4.470;2024-03-25T14:12:40;2.67;;;0.50;;
38972;SDS011;25333;50.762;4.470;2024-03-25T14:15:06;4.33;;;0.83;;
38972;SDS011;25333;50.762;4.470;2024-03-25T14:17:32;1.40;;;0.60;;
38972;SDS011;25333;50.762;4.470;2024-03-25T14:19:58;2.22;;;0.50;;
38972;SDS011;25333;50.762;4.470;2024-03-25T14:22:24;1.43;;;0.50;;
38972;SDS011;25333;50.762;4.470;2024-03-25T14:24:49;4.75;;;1.05;;
38972;SDS011;25333;50.762;4.470;2024-03-25T14:27:17;1.27;;;0.40;;
38972;SDS011;25333;50.762;4.470;2024-03-25T14:29:43;2.83;;;0.60;;
38972;SDS011;25333;50.762;4.470;2024-03-25T14:32:08;1.40;;;0.50;;
38972;SDS011;25333;50.762;4.470;2024-03-25T14:34:34;2.45;;;0.40;;
38972;SDS011;25333;50.762;4.470;2024-03-25T14:37:00;4.05;;;1.20;;
38972;SDS011;25333;50.762;4.470;2024-03-25T14:39:26;1.63;;;0.73;;
38972;SDS011;25333;50.762;4.470;2024-03-25T14:41:52;2.38;;;0.90;;
38972;SDS011;25333;50.762;4.470;2024-03-25T14:44:18;3.70;;;0.55;;
38972;SDS011;25333;50.762;4.470;2024-03-25T14:46:44;2.55;;;0.60;;